AUA613 LOWW-LDSP
Flight info
| Callsign | AUA613 |
|---|---|
| Flight time | 0h 54m |
| Altitude | 35000 |
| Route | STEIN DCT NOHAT DCT KOPRY DCT DEVUL/N0445F360 DCT NUPSO |
| Aircraft | A321/M-SDE3FGHIRWY/LB1 |
Departure
| Time | 2026-04-24 15:17 |
|---|---|
| Airport | Vienna International Airport (LOWW) |
Arrival
| Time | 2026-04-24 16:11 |
|---|---|
| Airport | Split Saint Jerome Airport (LDSP) |
| Time | Latitude | Longitude | Altitude | Speed | Heading |
|---|---|---|---|---|---|
| 2026-04-24 14:35 | 48.11830 | 16.56988 | 621 ft | 0 kts | 206° |
| 2026-04-24 15:07 | 48.11832 | 16.56990 | 610 ft | 3 kts | 206° |
| 2026-04-24 15:07 | 48.11856 | 16.57005 | 626 ft | 4 kts | 197° |
| 2026-04-24 15:07 | 48.11882 | 16.57013 | 615 ft | 4 kts | 172° |
| 2026-04-24 15:07 | 48.11901 | 16.57000 | 626 ft | 2 kts | 117° |
| 2026-04-24 15:08 | 48.11902 | 16.56998 | 626 ft | 0 kts | 116° |
| 2026-04-24 15:11 | 48.11902 | 16.57000 | 626 ft | 1 kts | 116° |
| 2026-04-24 15:11 | 48.11890 | 16.57036 | 622 ft | 6 kts | 116° |
| 2026-04-24 15:11 | 48.11871 | 16.57094 | 624 ft | 6 kts | 116° |
| 2026-04-24 15:11 | 48.11854 | 16.57157 | 615 ft | 9 kts | 99° |
| 2026-04-24 15:12 | 48.11844 | 16.57245 | 619 ft | 8 kts | 112° |
| 2026-04-24 15:12 | 48.11779 | 16.57358 | 616 ft | 7 kts | 164° |
| 2026-04-24 15:12 | 48.11730 | 16.57379 | 623 ft | 9 kts | 164° |
| 2026-04-24 15:13 | 48.11663 | 16.57407 | 616 ft | 12 kts | 164° |
| 2026-04-24 15:13 | 48.11566 | 16.57447 | 622 ft | 15 kts | 164° |
| 2026-04-24 15:13 | 48.11466 | 16.57441 | 610 ft | 14 kts | 201° |
| 2026-04-24 15:13 | 48.11377 | 16.57377 | 622 ft | 14 kts | 206° |
| 2026-04-24 15:14 | 48.11290 | 16.57315 | 624 ft | 14 kts | 206° |
| 2026-04-24 15:14 | 48.11207 | 16.57297 | 615 ft | 12 kts | 141° |
| 2026-04-24 15:14 | 48.11180 | 16.57364 | 613 ft | 11 kts | 116° |
| 2026-04-24 15:14 | 48.11139 | 16.57489 | 619 ft | 16 kts | 116° |
| 2026-04-24 15:15 | 48.11093 | 16.57626 | 619 ft | 13 kts | 126° |
| 2026-04-24 15:15 | 48.10990 | 16.57610 | 610 ft | 12 kts | 206° |
| 2026-04-24 15:15 | 48.10929 | 16.57541 | 622 ft | 11 kts | 245° |
| 2026-04-24 15:15 | 48.10946 | 16.57439 | 622 ft | 10 kts | 295° |
| 2026-04-24 15:16 | 48.10987 | 16.57312 | 618 ft | 25 kts | 296° |
| 2026-04-24 15:16 | 48.11089 | 16.56999 | 617 ft | 73 kts | 296° |
| 2026-04-24 15:16 | 48.11395 | 16.56059 | 621 ft | 128 kts | 296° |
| 2026-04-24 15:16 | 48.11848 | 16.54664 | 691 ft | 162 kts | 294° |
| 2026-04-24 15:17 | 48.12158 | 16.53083 | 1286 ft | 165 kts | 267° |
| 2026-04-24 15:17 | 48.11518 | 16.51650 | 1896 ft | 178 kts | 217° |
| 2026-04-24 15:17 | 48.10291 | 16.50884 | 2167 ft | 203 kts | 204° |
| 2026-04-24 15:17 | 48.08896 | 16.50149 | 2547 ft | 218 kts | 203° |
| 2026-04-24 15:18 | 48.07460 | 16.49410 | 3204 ft | 219 kts | 204° |
| 2026-04-24 15:18 | 48.05996 | 16.48650 | 3848 ft | 226 kts | 206° |
| 2026-04-24 15:18 | 48.04607 | 16.47512 | 4428 ft | 237 kts | 216° |
| 2026-04-24 15:18 | 48.03161 | 16.46117 | 4858 ft | 259 kts | 217° |
| 2026-04-24 15:19 | 48.01609 | 16.44594 | 5473 ft | 270 kts | 217° |
| 2026-04-24 15:19 | 48.00006 | 16.43084 | 6286 ft | 277 kts | 211° |
| 2026-04-24 15:19 | 47.98140 | 16.42239 | 7037 ft | 288 kts | 189° |
| 2026-04-24 15:19 | 47.96122 | 16.42458 | 7771 ft | 297 kts | 169° |
| 2026-04-24 15:20 | 47.94099 | 16.43169 | 8518 ft | 301 kts | 168° |
| 2026-04-24 15:20 | 47.92042 | 16.43911 | 9249 ft | 307 kts | 168° |
| 2026-04-24 15:20 | 47.89950 | 16.44667 | 9988 ft | 311 kts | 168° |
| 2026-04-24 15:20 | 47.87792 | 16.45439 | 10369 ft | 329 kts | 168° |
| 2026-04-24 15:21 | 47.85483 | 16.46259 | 10522 ft | 352 kts | 168° |
| 2026-04-24 15:21 | 47.83028 | 16.47130 | 10693 ft | 372 kts | 168° |
| 2026-04-24 15:21 | 47.80482 | 16.48031 | 11179 ft | 380 kts | 167° |
| 2026-04-24 15:21 | 47.77894 | 16.48944 | 11773 ft | 384 kts | 167° |
| 2026-04-24 15:22 | 47.75279 | 16.49863 | 12399 ft | 388 kts | 167° |
| 2026-04-24 15:22 | 47.72639 | 16.50786 | 13057 ft | 391 kts | 167° |
| 2026-04-24 15:22 | 47.70009 | 16.51703 | 13667 ft | 395 kts | 167° |
| 2026-04-24 15:23 | 47.64604 | 16.53587 | 14768 ft | 402 kts | 167° |
| 2026-04-24 15:23 | 47.59124 | 16.55505 | 15834 ft | 407 kts | 167° |
| 2026-04-24 15:23 | 47.56353 | 16.56476 | 16366 ft | 410 kts | 167° |
| 2026-04-24 15:24 | 47.47890 | 16.58974 | 17878 ft | 417 kts | 173° |
| 2026-04-24 15:25 | 47.42096 | 16.60009 | 18730 ft | 422 kts | 178° |
| 2026-04-24 15:25 | 47.36209 | 16.60255 | 19536 ft | 425 kts | 179° |
| 2026-04-24 15:26 | 47.27279 | 16.60631 | 20742 ft | 431 kts | 179° |
| 2026-04-24 15:27 | 47.18224 | 16.61039 | 21994 ft | 437 kts | 179° |
| 2026-04-24 15:27 | 47.09030 | 16.61438 | 23247 ft | 444 kts | 178° |
| 2026-04-24 15:28 | 46.96545 | 16.61972 | 24650 ft | 453 kts | 178° |
| 2026-04-24 15:29 | 46.90210 | 16.62257 | 25305 ft | 458 kts | 178° |
| 2026-04-24 15:30 | 46.80640 | 16.63312 | 26283 ft | 463 kts | 165° |
| 2026-04-24 15:31 | 46.68594 | 16.70067 | 27548 ft | 469 kts | 156° |
| 2026-04-24 15:32 | 46.56406 | 16.77294 | 28653 ft | 476 kts | 156° |
| 2026-04-24 15:33 | 46.44074 | 16.84553 | 29729 ft | 478 kts | 156° |
| 2026-04-24 15:33 | 46.34845 | 16.89957 | 30562 ft | 476 kts | 156° |
| 2026-04-24 15:34 | 46.28645 | 16.93321 | 31067 ft | 478 kts | 163° |
| 2026-04-24 15:35 | 46.18716 | 16.93584 | 31824 ft | 482 kts | 192° |
| 2026-04-24 15:35 | 46.12303 | 16.90650 | 32318 ft | 483 kts | 198° |
| 2026-04-24 15:35 | 46.09112 | 16.89120 | 32581 ft | 483 kts | 198° |
| 2026-04-24 15:36 | 46.05919 | 16.87595 | 32850 ft | 483 kts | 198° |
| 2026-04-24 15:36 | 45.99538 | 16.84565 | 33371 ft | 483 kts | 197° |
| 2026-04-24 15:36 | 45.96344 | 16.83053 | 33626 ft | 483 kts | 197° |
| 2026-04-24 15:37 | 45.93150 | 16.81543 | 33892 ft | 483 kts | 197° |
| 2026-04-24 15:37 | 45.89960 | 16.80032 | 34138 ft | 483 kts | 197° |
| 2026-04-24 15:37 | 45.86773 | 16.78524 | 34367 ft | 482 kts | 197° |
| 2026-04-24 15:37 | 45.83584 | 16.77015 | 34594 ft | 482 kts | 197° |
| 2026-04-24 15:38 | 45.80402 | 16.75509 | 34823 ft | 482 kts | 197° |
| 2026-04-24 15:38 | 45.77216 | 16.74004 | 35048 ft | 482 kts | 197° |
| 2026-04-24 15:38 | 45.74036 | 16.72507 | 35273 ft | 481 kts | 197° |
| 2026-04-24 15:38 | 45.70855 | 16.71014 | 35501 ft | 481 kts | 197° |
| 2026-04-24 15:39 | 45.67677 | 16.69524 | 35705 ft | 481 kts | 197° |
| 2026-04-24 15:39 | 45.64503 | 16.68036 | 35922 ft | 480 kts | 197° |
| 2026-04-24 15:39 | 45.61322 | 16.66550 | 36034 ft | 480 kts | 197° |
| 2026-04-24 15:39 | 45.58194 | 16.65090 | 36042 ft | 478 kts | 197° |
| 2026-04-24 15:40 | 45.51883 | 16.62139 | 36043 ft | 477 kts | 197° |
| 2026-04-24 15:40 | 45.45582 | 16.59195 | 36043 ft | 476 kts | 197° |
| 2026-04-24 15:41 | 45.39284 | 16.56265 | 36043 ft | 476 kts | 197° |
| 2026-04-24 15:41 | 45.32992 | 16.53339 | 36043 ft | 476 kts | 196° |
| 2026-04-24 15:42 | 45.26695 | 16.50421 | 36044 ft | 476 kts | 196° |
| 2026-04-24 15:42 | 45.20588 | 16.47598 | 36049 ft | 476 kts | 196° |
| 2026-04-24 15:43 | 45.14291 | 16.44694 | 36052 ft | 475 kts | 196° |
| 2026-04-24 15:43 | 45.08151 | 16.41178 | 36056 ft | 476 kts | 201° |
| 2026-04-24 15:44 | 45.02053 | 16.37508 | 36057 ft | 476 kts | 201° |
| 2026-04-24 15:44 | 44.95952 | 16.33856 | 36060 ft | 476 kts | 201° |
| 2026-04-24 15:45 | 44.89848 | 16.30224 | 36062 ft | 476 kts | 201° |
| 2026-04-24 15:45 | 44.83753 | 16.26591 | 36060 ft | 476 kts | 201° |
| 2026-04-24 15:46 | 44.77690 | 16.22965 | 36061 ft | 476 kts | 201° |
| 2026-04-24 15:46 | 44.74604 | 16.21127 | 35956 ft | 477 kts | 201° |
| 2026-04-24 15:46 | 44.71545 | 16.19313 | 35399 ft | 476 kts | 201° |
| 2026-04-24 15:47 | 44.68537 | 16.17530 | 34791 ft | 475 kts | 200° |
| 2026-04-24 15:47 | 44.65449 | 16.15703 | 34163 ft | 475 kts | 200° |
| 2026-04-24 15:47 | 44.62445 | 16.13931 | 33392 ft | 475 kts | 200° |
| 2026-04-24 15:47 | 44.59359 | 16.12111 | 32553 ft | 475 kts | 201° |
| 2026-04-24 15:48 | 44.56353 | 16.10334 | 31744 ft | 475 kts | 201° |
| 2026-04-24 15:48 | 44.53304 | 16.08536 | 30928 ft | 476 kts | 201° |
| 2026-04-24 15:48 | 44.50250 | 16.06738 | 30100 ft | 476 kts | 201° |
| 2026-04-24 15:48 | 44.47192 | 16.04942 | 29113 ft | 477 kts | 201° |
| 2026-04-24 15:49 | 44.44126 | 16.03144 | 28089 ft | 479 kts | 201° |
| 2026-04-24 15:49 | 44.41053 | 16.01343 | 27196 ft | 478 kts | 201° |
| 2026-04-24 15:49 | 44.38004 | 15.99559 | 26491 ft | 473 kts | 201° |
| 2026-04-24 15:49 | 44.34981 | 15.97791 | 25813 ft | 469 kts | 201° |
| 2026-04-24 15:50 | 44.31986 | 15.96036 | 25129 ft | 464 kts | 201° |
| 2026-04-24 15:50 | 44.29018 | 15.94299 | 24452 ft | 461 kts | 201° |
| 2026-04-24 15:50 | 44.26076 | 15.92585 | 23797 ft | 457 kts | 201° |
| 2026-04-24 15:50 | 44.23156 | 15.90885 | 23050 ft | 453 kts | 201° |
| 2026-04-24 15:51 | 44.20266 | 15.89205 | 22300 ft | 448 kts | 201° |
| 2026-04-24 15:51 | 44.17399 | 15.87541 | 21592 ft | 444 kts | 201° |
| 2026-04-24 15:51 | 44.14491 | 15.86222 | 20889 ft | 437 kts | 191° |
| 2026-04-24 15:51 | 44.11512 | 15.85593 | 20218 ft | 430 kts | 182° |
| 2026-04-24 15:52 | 44.09501 | 15.85555 | 19751 ft | 425 kts | 175° |
| 2026-04-24 15:52 | 44.05615 | 15.85908 | 18805 ft | 420 kts | 174° |
| 2026-04-24 15:52 | 44.02712 | 15.86174 | 18088 ft | 416 kts | 174° |
| 2026-04-24 15:52 | 43.99840 | 15.86431 | 17321 ft | 412 kts | 174° |
| 2026-04-24 15:53 | 43.96990 | 15.86682 | 16589 ft | 408 kts | 174° |
| 2026-04-24 15:53 | 43.94168 | 15.86931 | 15900 ft | 405 kts | 175° |
| 2026-04-24 15:53 | 43.91364 | 15.87175 | 15243 ft | 402 kts | 175° |
| 2026-04-24 15:53 | 43.88584 | 15.87416 | 14596 ft | 399 kts | 175° |
| 2026-04-24 15:54 | 43.85823 | 15.87658 | 13979 ft | 395 kts | 175° |
| 2026-04-24 15:54 | 43.83088 | 15.87898 | 13333 ft | 392 kts | 175° |
| 2026-04-24 15:54 | 43.80395 | 15.88135 | 12856 ft | 384 kts | 175° |
| 2026-04-24 15:54 | 43.77757 | 15.88368 | 12383 ft | 377 kts | 175° |
| 2026-04-24 15:55 | 43.75163 | 15.88598 | 11936 ft | 370 kts | 175° |
| 2026-04-24 15:55 | 43.72619 | 15.88822 | 11485 ft | 364 kts | 175° |
| 2026-04-24 15:55 | 43.70115 | 15.89041 | 11047 ft | 358 kts | 175° |
| 2026-04-24 15:55 | 43.67650 | 15.89255 | 10629 ft | 351 kts | 176° |
| 2026-04-24 15:56 | 43.65258 | 15.89461 | 10455 ft | 337 kts | 176° |
| 2026-04-24 15:56 | 43.62970 | 15.89657 | 10334 ft | 322 kts | 176° |
| 2026-04-24 15:56 | 43.60780 | 15.89846 | 10209 ft | 309 kts | 176° |
| 2026-04-24 15:56 | 43.58654 | 15.90030 | 9952 ft | 304 kts | 176° |
| 2026-04-24 15:57 | 43.56556 | 15.90213 | 9532 ft | 301 kts | 176° |
| 2026-04-24 15:57 | 43.54475 | 15.90395 | 9110 ft | 299 kts | 176° |
| 2026-04-24 15:57 | 43.53098 | 15.90515 | 8842 ft | 298 kts | 176° |
| 2026-04-24 15:57 | 43.50364 | 15.90756 | 8436 ft | 297 kts | 175° |
| 2026-04-24 15:58 | 43.48974 | 15.90876 | 8232 ft | 296 kts | 175° |
| 2026-04-24 15:58 | 43.46264 | 15.91111 | 7832 ft | 294 kts | 175° |
| 2026-04-24 15:58 | 43.44228 | 15.91290 | 7537 ft | 292 kts | 175° |
| 2026-04-24 15:58 | 43.42204 | 15.91467 | 7244 ft | 291 kts | 175° |
| 2026-04-24 15:59 | 43.40188 | 15.91640 | 6953 ft | 290 kts | 175° |
| 2026-04-24 15:59 | 43.38828 | 15.91755 | 6749 ft | 289 kts | 174° |
| 2026-04-24 15:59 | 43.36827 | 15.91925 | 6464 ft | 288 kts | 175° |
| 2026-04-24 15:59 | 43.34860 | 15.92102 | 6168 ft | 286 kts | 172° |
| 2026-04-24 16:00 | 43.32956 | 15.92758 | 5868 ft | 281 kts | 154° |
| 2026-04-24 16:00 | 43.31310 | 15.94155 | 5563 ft | 277 kts | 136° |
| 2026-04-24 16:00 | 43.30062 | 15.96125 | 5259 ft | 273 kts | 119° |
| 2026-04-24 16:00 | 43.29319 | 15.98492 | 4959 ft | 268 kts | 99° |
| 2026-04-24 16:01 | 43.29266 | 16.01009 | 4643 ft | 264 kts | 76° |
| 2026-04-24 16:01 | 43.29796 | 16.03414 | 4332 ft | 264 kts | 68° |
| 2026-04-24 16:01 | 43.30389 | 16.05795 | 4086 ft | 259 kts | 67° |
| 2026-04-24 16:01 | 43.30957 | 16.08072 | 4030 ft | 244 kts | 67° |
| 2026-04-24 16:02 | 43.31492 | 16.10230 | 4033 ft | 237 kts | 67° |
| 2026-04-24 16:02 | 43.32016 | 16.12345 | 4028 ft | 229 kts | 67° |
| 2026-04-24 16:02 | 43.32524 | 16.14396 | 4028 ft | 225 kts | 67° |
| 2026-04-24 16:02 | 43.33032 | 16.16432 | 4029 ft | 225 kts | 66° |
| 2026-04-24 16:03 | 43.33540 | 16.18461 | 4027 ft | 224 kts | 67° |
| 2026-04-24 16:03 | 43.34092 | 16.20421 | 3964 ft | 214 kts | 57° |
| 2026-04-24 16:03 | 43.34880 | 16.22100 | 3749 ft | 205 kts | 46° |
| 2026-04-24 16:03 | 43.35880 | 16.23474 | 3365 ft | 203 kts | 36° |
| 2026-04-24 16:04 | 43.36952 | 16.24755 | 3045 ft | 204 kts | 36° |
| 2026-04-24 16:04 | 43.38024 | 16.26049 | 3027 ft | 206 kts | 36° |
| 2026-04-24 16:04 | 43.39096 | 16.27352 | 3011 ft | 205 kts | 36° |
| 2026-04-24 16:04 | 43.40163 | 16.28651 | 3010 ft | 203 kts | 36° |
| 2026-04-24 16:05 | 43.42174 | 16.31103 | 3019 ft | 186 kts | 36° |
| 2026-04-24 16:05 | 43.43117 | 16.32252 | 3008 ft | 177 kts | 36° |
| 2026-04-24 16:06 | 43.44963 | 16.34485 | 2935 ft | 178 kts | 35° |
| 2026-04-24 16:06 | 43.45885 | 16.35604 | 2674 ft | 175 kts | 36° |
| 2026-04-24 16:06 | 43.47673 | 16.37785 | 2206 ft | 163 kts | 35° |
| 2026-04-24 16:07 | 43.48497 | 16.38793 | 1972 ft | 155 kts | 35° |
| 2026-04-24 16:07 | 43.49303 | 16.39719 | 1782 ft | 146 kts | 24° |
| 2026-04-24 16:07 | 43.51126 | 16.40052 | 1498 ft | 134 kts | 350° |
| 2026-04-24 16:08 | 43.52070 | 16.39862 | 1368 ft | 136 kts | 346° |
| 2026-04-24 16:08 | 43.53721 | 16.38753 | 1147 ft | 133 kts | 313° |
| 2026-04-24 16:09 | 43.54902 | 16.36760 | 843 ft | 134 kts | 307° |
| 2026-04-24 16:09 | 43.55432 | 16.35706 | 747 ft | 134 kts | 296° |
| 2026-04-24 16:09 | 43.55700 | 16.34487 | 639 ft | 135 kts | 280° |
| 2026-04-24 16:09 | 43.55571 | 16.33205 | 453 ft | 137 kts | 254° |
| 2026-04-24 16:10 | 43.54018 | 16.30017 | 66 ft | 111 kts | 233° |
| 2026-04-24 16:11 | 43.53574 | 16.29213 | 81 ft | 35 kts | 233° |
| 2026-04-24 16:11 | 43.53430 | 16.28953 | 83 ft | 33 kts | 232° |
| 2026-04-24 16:11 | 43.53301 | 16.28722 | 83 ft | 22 kts | 232° |
| 2026-04-24 16:12 | 43.53225 | 16.28601 | 74 ft | 3 kts | 348° |
| 2026-04-24 16:12 | 43.53255 | 16.28639 | 69 ft | 9 kts | 55° |
| 2026-04-24 16:12 | 43.53410 | 16.28917 | 81 ft | 24 kts | 51° |
| 2026-04-24 16:13 | 43.53513 | 16.29093 | 84 ft | 24 kts | 54° |
| 2026-04-24 16:13 | 43.53695 | 16.29454 | 80 ft | 21 kts | 69° |
| 2026-04-24 16:14 | 43.53637 | 16.29583 | 62 ft | 7 kts | 165° |
| 2026-04-24 16:14 | 43.53599 | 16.29613 | 66 ft | 3 kts | 140° |
| 2026-04-24 16:14 | 43.53579 | 16.29660 | 66 ft | 3 kts | 84° |
| 2026-04-24 16:15 | 43.53585 | 16.29674 | 68 ft | 2 kts | 67° |
| 2026-04-24 16:15 | 43.53584 | 16.29697 | 68 ft | 0 kts | 97° |
| 2026-04-24 16:16 | 43.53584 | 16.29698 | 68 ft | 0 kts | 97° |